Latest Weather Observations for Shark Bay Airport

IDW60801

Issued at 10:03 pm WST Friday 6 March 2015 (issued every 30 minutes, with the page automatically refreshed every 10 minutes)

About weather observations | Map of weather stations | Latest weather observations for WA | Other Formats
Station Details ID: 006105 Name: SHARK BAY AIRPORT Lat: -25.89 Lon: 113.58 Height: 33.8 m
Data from the previous 72 hours. | See also: Recent months for locations in Western Australia
Date/Time
WST
Temp
°C
App
Temp
°C
Dew
Point
Rel
Hum
%
Delta-T
°C
Wind Press
QNH
hPa
Press
MSL
hPa
Rain
since 9 am
mm
Dir
 
Spd
km/h
Gust
km/h
Spd
kts
Gust
kts
06/10:00pm 26.7 26.5 19.3 64 4.8 SE 19 24 10 13 1011.7 1011.5 0.2
06/09:30pm 26.7 26.4 19.1 63 4.9 SE 19 24 10 13 1011.9 1011.7 0.2
06/09:00pm 26.7 26.2 19.1 63 4.9 SSE 20 28 11 15 1011.8 1011.6 0.2
06/08:30pm 26.9 26.0 19.0 62 5.1 SSE 22 30 12 16 1011.6 1011.4 0.2
06/08:00pm 27.4 27.0 18.9 59 5.5 SSE 19 24 10 13 1011.1 1010.9 0.2
06/07:30pm 28.0 27.2 18.1 55 6.3 SE 19 28 10 15 1010.5 1010.3 0.2
06/07:00pm 28.2 28.0 17.7 53 6.7 SE 15 22 8 12 1010.5 1010.3 0.2
06/06:30pm 28.0 28.0 19.0 58 5.8 SSE 17 24 9 13 1010.3 1010.1 0.2
06/06:00pm 28.7 27.6 17.2 49 7.3 SE 19 28 10 15 1009.9 1009.7 0.2
06/05:30pm 28.7 28.4 18.2 53 6.7 SSE 17 24 9 13 1009.8 1009.6 0.2
06/05:00pm 29.5 27.8 17.3 47 7.7 SE 22 32 12 17 1009.8 1009.6 0.2
06/04:30pm 29.1 27.9 17.6 50 7.3 SE 20 30 11 16 1009.9 1009.7 0.2
06/04:00pm 29.8 26.7 16.6 45 8.3 ESE 28 41 15 22 1010.0 1009.8 0.2
06/03:30pm 30.0 27.5 16.1 43 8.7 SE 24 33 13 18 1010.3 1010.1 0.2
06/03:00pm 30.3 28.1 17.0 44 8.4 ESE 24 37 13 20 1010.9 1010.7 0.2
06/02:30pm 28.9 26.7 16.8 48 7.6 ESE 24 33 13 18 1011.2 1011.0 0.2
06/02:00pm 28.8 26.3 17.0 49 7.4 ESE 26 39 14 21 1011.5 1011.3 0.2
06/01:30pm 29.0 27.0 17.5 49 7.3 ESE 24 35 13 19 1011.6 1011.4 0.2
06/01:00pm 27.5 24.9 17.7 55 6.2 ESE 28 37 15 20 1012.1 1011.9 0.2
06/12:30pm 27.9 25.4 18.0 55 6.3 ESE 28 41 15 22 1012.3 1012.1 0.2
06/12:00pm 28.2 25.4 18.3 55 6.3 ESE 30 43 16 23 1012.6 1012.4 0.2
06/11:30am 27.8 25.6 18.8 58 5.8 ESE 28 41 15 22 1013.0 1012.8 0.2
06/11:00am 25.7 22.6 17.4 60 5.2 ESE 30 43 16 23 1013.5 1013.3 0.2
06/10:30am 24.5 21.7 18.2 68 4.0 ESE 30 41 16 22 1013.8 1013.6 0.0
06/10:00am 23.5 21.1 19.2 77 2.7 ESE 30 43 16 23 1013.9 1013.7 0.0
06/09:30am 22.7 20.3 19.1 80 2.3 ESE 30 41 16 22 1013.9 1013.7 0.0
06/09:00am 21.7 20.8 19.8 89 1.2 ESE 24 39 13 21 1013.8 1013.6 6.2
06/08:30am 21.4 20.9 19.9 91 1.0 ESE 22 30 12 16 1013.8 1013.6 6.2
06/08:00am 21.2 20.2 19.7 91 1.0 ESE 24 32 13 17 1013.8 1013.6 6.2
06/07:30am 21.1 20.9 19.7 92 0.9 ESE 20 28 11 15 1013.9 1013.7 6.2
06/07:00am 20.8 20.4 19.3 91 0.9 ESE 20 26 11 14 1013.8 1013.6 5.2
06/06:30am 20.7 20.2 19.0 90 1.1 ESE 20 26 11 14 1013.7 1013.5 1.4
06/06:00am 20.9 20.4 19.0 89 1.2 ESE 20 30 11 16 1013.6 1013.4 0.8
06/05:30am 21.5 21.4 19.6 89 1.2 ESE 19 26 10 14 1013.3 1013.1 0.4
06/05:00am 21.8 21.4 19.4 86 1.5 E 20 30 11 16 1013.3 1013.1 0.0
06/04:30am 23.1 21.6 18.6 76 2.8 ESE 24 35 13 19 1013.1 1012.9 0.0
06/04:00am 23.4 21.9 18.5 74 3.1 E 24 33 13 18 1013.2 1013.0 0.0
06/03:30am 23.6 22.6 18.9 75 3.0 E 22 30 12 16 1013.3 1013.1 0.0
06/03:00am 23.6 21.9 18.9 75 3.0 E 26 35 14 19 1013.4 1013.2 0.0
06/02:30am 23.0 22.2 19.2 79 2.4 ESE 22 32 12 17 1013.6 1013.4 0.0
06/02:00am 23.4 20.3 18.5 74 3.1 E 32 48 17 26 1013.8 1013.6 0.0
06/01:54am 23.8 21.2 18.7 73 3.2 E 30 48 16 26 1013.8 1013.6 0.0
06/01:30am 24.4 21.1 18.3 69 3.8 E 33 46 18 25 1014.0 1013.8 0.0
06/01:00am 24.7 21.6 18.4 68 4.0 E 32 43 17 23 1014.1 1013.9 0.0
06/12:41am 24.7 22.1 18.6 69 3.9 E 30 48 16 26 1014.1 1013.9 0.0
06/12:30am 24.7 21.4 18.4 68 4.0 E 33 46 18 25 1014.2 1014.0 0.0
06/12:00am 24.7 21.6 18.4 68 4.0 ESE 32 43 17 23 1014.4 1014.2 0.0
 
Date/Time
WST
Temp
°C
App
Temp
°C
Dew
Point
Rel
Hum
%
Delta-T
°C
Wind Press
QNH
hPa
Press
MSL
hPa
Rain
since 9 am
mm
Dir
 
Spd
km/h
Gust
km/h
Spd
kts
Gust
kts
05/11:30pm 24.7 21.5 18.6 69 3.9 ESE 33 44 18 24 1014.5 1014.3 0.0
05/11:00pm 24.7 22.3 19.1 71 3.6 ESE 30 37 16 20 1014.7 1014.5 0.0
05/10:30pm 24.9 22.8 19.0 69 3.8 ESE 28 41 15 22 1015.1 1014.9 0.0
05/10:00pm 25.0 22.0 18.7 68 4.0 E 32 44 17 24 1015.3 1015.1 0.0
05/09:43pm 25.3 22.1 18.7 67 4.2 E 33 52 18 28 1015.2 1015.0 0.0
05/09:30pm 25.2 23.0 18.6 67 4.2 E 28 41 15 22 1015.2 1015.0 0.0
05/09:13pm 25.3 21.9 18.2 64 4.5 E 33 52 18 28 1015.0 1014.8 0.0
05/09:00pm 25.7 21.8 17.9 62 4.9 E 35 48 19 26 1014.8 1014.6 0.0
05/08:48pm 26.2 22.8 17.8 60 5.3 E 32 52 17 28 1014.6 1014.4 0.0
05/08:30pm 26.7 23.6 17.5 57 5.8 E 30 41 16 22 1014.3 1014.1 0.0
05/08:00pm 27.4 24.3 17.6 55 6.2 E 30 44 16 24 1013.9 1013.7 0.0
05/07:30pm 27.6 26.2 18.0 55 6.1 E 22 33 12 18 1013.7 1013.5 0.0
05/07:00pm 27.4 25.2 18.7 59 5.6 E 28 37 15 20 1013.6 1013.4 0.0
05/06:30pm 27.3 25.7 19.1 61 5.3 ENE 26 37 14 20 1013.6 1013.4 0.0
05/06:00pm 28.9 26.7 18.7 54 6.6 ENE 28 41 15 22 1013.1 1012.9 0.0
05/05:30pm 30.8 29.7 17.8 45 8.3 E 20 32 11 17 1012.7 1012.5 0.0
05/05:00pm 30.9 28.2 17.6 45 8.5 ESE 28 35 15 19 1012.4 1012.2 0.0
05/04:30pm 31.3 29.4 17.6 44 8.8 E 24 35 13 19 1012.1 1011.9 0.0
05/04:00pm 32.2 30.3 17.7 42 9.3 ESE 24 35 13 19 1012.1 1011.9 0.0
05/03:30pm 32.7 31.2 18.5 43 9.2 E 24 35 13 19 1012.1 1011.9 0.0
05/03:00pm 32.4 29.7 17.5 41 9.5 E 28 35 15 19 1012.3 1012.1 0.0
05/02:30pm 31.5 28.7 17.4 43 9.0 E 28 41 15 22 1012.6 1012.4 0.0
05/02:00pm 32.8 30.2 17.8 40 9.7 E 28 39 15 21 1013.0 1012.8 0.0
05/01:30pm 32.3 29.2 17.4 41 9.5 ENE 30 44 16 24 1013.4 1013.2 0.0
05/01:00pm 31.7 28.1 17.6 43 9.0 E 33 46 18 25 1013.6 1013.4 0.0
05/12:30pm 31.9 28.7 18.1 43 8.9 ENE 32 44 17 24 1014.0 1013.8 0.0
05/12:12pm 31.6 28.7 17.9 44 8.8 ENE 30 48 16 26 1014.2 1014.0 0.0
05/12:00pm 31.5 28.1 18.1 44 8.6 E 33 46 18 25 1014.2 1014.0 0.0
05/11:30am 30.8 27.4 17.8 45 8.3 E 32 43 17 23 1014.6 1014.4 0.0
05/11:00am 31.6 28.6 18.6 46 8.4 E 32 46 17 25 1014.9 1014.7 0.0
05/10:30am 29.5 27.0 18.9 53 6.9 E 30 46 16 25 1015.2 1015.0 0.0
05/10:00am 30.4 28.3 19.7 52 7.0 E 30 41 16 22 1015.2 1015.0 0.0
05/09:30am 29.1 26.8 19.4 55 6.3 E 30 39 16 21 1015.1 1014.9 0.0
05/09:00am 28.4 26.4 19.1 57 6.0 E 28 37 15 20 1015.0 1014.8 0.0
05/08:30am 28.5 26.4 19.7 59 5.7 E 30 41 16 22 1014.7 1014.5 0.0
05/08:00am 28.3 26.8 19.5 59 5.7 E 26 35 14 19 1014.4 1014.2 0.0
05/07:30am 27.0 25.0 19.1 62 5.1 E 28 41 15 22 1014.2 1014.0 0.0
05/07:00am 26.2 25.4 19.3 65 4.4 E 22 33 12 18 1014.1 1013.9 0.0
05/06:30am 25.8 24.5 19.0 66 4.4 E 24 35 13 19 1013.7 1013.5 0.0
05/06:00am 26.0 25.2 19.2 66 4.4 E 22 32 12 17 1013.3 1013.1 0.0
05/05:30am 26.3 25.5 19.2 65 4.6 E 22 32 12 17 1013.1 1012.9 0.0
05/05:00am 26.4 25.6 19.3 65 4.6 E 22 33 12 18 1012.8 1012.6 0.0
05/04:30am 26.6 26.5 19.5 65 4.6 E 19 26 10 14 1012.8 1012.6 0.0
05/04:00am 26.8 26.2 19.7 65 4.6 E 22 39 12 21 1012.5 1012.3 0.0
05/03:30am 27.0 26.3 19.4 63 4.9 E 22 33 12 18 1012.6 1012.4 0.0
05/03:00am 27.2 26.9 19.5 62 5.0 E 20 30 11 16 1012.4 1012.2 0.0
05/02:30am 27.6 26.2 19.7 62 5.1 E 26 35 14 19 1012.4 1012.2 0.0
05/02:00am 27.9 26.4 19.4 60 5.5 E 26 37 14 20 1012.5 1012.3 0.0
05/01:30am 28.2 28.0 20.5 63 5.1 E 22 35 12 19 1012.6 1012.4 0.0
05/01:00am 28.5 27.7 20.0 60 5.6 E 24 32 13 17 1012.5 1012.3 0.0
05/12:30am 28.8 28.2 19.7 58 5.9 E 22 32 12 17 1012.6 1012.4 0.0
05/12:00am 29.1 28.1 19.7 57 6.1 E 24 33 13 18 1012.5 1012.3 0.0
 
Date/Time
WST
Temp
°C
App
Temp
°C
Dew
Point
Rel
Hum
%
Delta-T
°C
Wind Press
QNH
hPa
Press
MSL
hPa
Rain
since 9 am
mm
Dir
 
Spd
km/h
Gust
km/h
Spd
kts
Gust
kts
04/11:30pm 29.6 28.3 19.9 56 6.4 E 26 35 14 19 1012.5 1012.3 0.0
04/11:00pm 29.7 29.2 20.0 56 6.4 E 22 28 12 15 1012.3 1012.1 0.0
04/10:30pm 30.0 29.5 20.0 55 6.6 E 22 32 12 17 1012.5 1012.3 0.0
04/10:00pm 30.3 29.4 19.9 53 6.8 E 24 33 13 18 1012.4 1012.2 0.0
04/09:30pm 29.3 30.1 20.7 59 5.7 E 17 24 9 13 1012.2 1012.0 0.0
04/09:00pm 28.0 29.8 20.3 63 5.1 SE 11 13 6 7 1011.9 1011.7 0.0
04/08:30pm 27.9 28.7 19.9 61 5.2 S 15 19 8 10 1011.6 1011.4 0.0
04/08:00pm 27.9 28.3 19.9 61 5.2 S 17 24 9 13 1011.2 1011.0 0.0
04/07:30pm 27.7 27.8 20.3 64 4.9 S 20 30 11 16 1010.8 1010.6 0.0
04/07:00pm 28.4 28.1 20.4 62 5.3 SSW 22 30 12 16 1010.3 1010.1 0.0
04/06:30pm 29.4 27.7 19.7 56 6.3 SSW 28 37 15 20 1009.9 1009.7 0.0
04/06:00pm 30.8 28.3 18.8 48 7.8 S 30 43 16 23 1009.6 1009.4 0.0
04/05:30pm 32.5 30.1 19.0 44 8.8 S 30 39 16 21 1009.3 1009.1 0.0
04/05:00pm 35.3 33.0 15.6 31 12.4 SSE 22 33 12 18 1009.4 1009.2 0.0
04/04:30pm 35.4 33.7 16.2 32 12.2 SE 20 35 11 19 1009.5 1009.3 0.0
04/04:00pm 35.7 34.1 16.4 31 12.3 ESE 20 32 11 17 1009.7 1009.5 0.0
04/03:30pm 35.3 33.4 16.6 33 11.9 ESE 22 39 12 21 1009.8 1009.6 0.0
04/03:00pm 35.3 33.9 17.0 33 11.8 SE 20 32 11 17 1010.0 1009.8 0.0
04/02:30pm 35.2 33.4 17.0 34 11.7 ESE 22 35 12 19 1010.2 1010.0 0.0
04/02:00pm 34.3 32.7 17.5 36 10.8 E 22 32 12 17 1010.4 1010.2 0.0
04/01:30pm 34.6 32.7 18.6 38 10.5 E 26 41 14 22 1010.8 1010.6 0.0
04/01:00pm 33.5 30.8 17.6 38 10.2 E 28 43 15 23 1011.2 1011.0 0.0
04/12:30pm 33.1 30.3 18.1 41 9.7 ESE 30 41 16 22 1011.7 1011.5 0.0
04/12:00pm 32.9 30.7 18.7 43 9.3 ESE 28 39 15 21 1012.0 1011.8 0.0
04/11:30am 32.1 29.9 18.7 45 8.7 ESE 28 41 15 22 1012.6 1012.4 0.0
04/11:00am 31.7 29.9 18.7 46 8.4 ESE 26 35 14 19 1012.9 1012.7 0.0
04/10:30am 31.0 28.8 18.7 48 8.0 E 28 43 15 23 1013.1 1012.9 0.0
04/10:00am 30.4 28.2 18.8 50 7.5 E 28 37 15 20 1013.4 1013.2 0.0
04/09:30am 29.4 27.0 19.1 54 6.7 E 30 43 16 23 1013.4 1013.2 0.0
04/09:00am 28.9 26.9 19.2 55 6.3 ESE 28 35 15 19 1013.5 1013.3 0.0
04/08:30am 28.2 26.2 19.1 57 5.9 ESE 28 37 15 20 1013.3 1013.1 0.0
04/08:00am 27.9 25.9 19.1 58 5.7 ESE 28 35 15 19 1013.2 1013.0 0.0
04/07:30am 27.1 25.7 18.9 61 5.3 ESE 24 33 13 18 1012.9 1012.7 0.0
04/07:00am 26.4 26.1 19.5 66 4.5 ESE 20 32 11 17 1012.8 1012.6 0.0
04/06:30am 25.5 25.4 19.6 70 3.8 ESE 19 26 10 14 1012.6 1012.4 0.0
04/06:00am 24.6 26.0 20.3 77 2.8 ESE 13 15 7 8 1012.2 1012.0 0.0
04/05:30am 24.5 26.2 20.2 77 2.8 E 11 13 6 7 1011.9 1011.7 0.0
04/05:00am 24.9 26.3 20.4 76 2.9 E 13 17 7 9 1011.3 1011.1 0.0
04/04:30am 25.1 26.3 20.6 76 2.9 E 15 20 8 11 1011.1 1010.9 0.0
04/04:00am 24.9 26.1 20.6 77 2.8 E 15 20 8 11 1011.0 1010.8 0.0
04/03:30am 24.2 25.6 20.3 79 2.5 ESE 13 17 7 9 1010.9 1010.7 0.0
04/03:00am 24.1 26.4 19.8 77 2.8 ESE 7 9 4 5 1010.9 1010.7 0.0
04/02:30am 24.5 26.9 20.0 76 2.9 E 7 9 4 5 1010.9 1010.7 0.0
04/02:00am 25.0 27.2 20.5 76 2.9 E 9 11 5 6 1010.9 1010.7 0.0
04/01:30am 25.5 27.1 20.7 75 3.2 E 13 17 7 9 1010.9 1010.7 0.0
04/01:00am 25.7 27.6 21.4 77 2.9 E 13 17 7 9 1011.1 1010.9 0.0
04/12:30am 25.8 27.8 21.5 77 2.9 E 13 15 7 8 1010.9 1010.7 0.0
04/12:00am 25.9 27.7 21.1 75 3.2 E 13 17 7 9 1011.0 1010.8 0.0
 
Date/Time
WST
Temp
°C
App
Temp
°C
Dew
Point
Rel
Hum
%
Delta-T
°C
Wind Press
QNH
hPa
Press
MSL
hPa
Rain
since 9 am
mm
Dir
 
Spd
km/h
Gust
km/h
Spd
kts
Gust
kts
03/11:30pm 25.9 27.6 20.9 74 3.3 E 13 19 7 10 1011.0 1010.8 0.0
03/11:00pm 26.1 27.4 20.9 73 3.4 E 15 20 8 11 1010.9 1010.7 0.0
03/10:30pm 26.2 26.4 20.5 71 3.7 E 20 28 11 15 1011.0 1010.8 0.0

Other Formats:

Comma delimited format used in spreadsheet applications
http://www.bom.gov.au/fwo/IDW60801/IDW60801.95402.axf

JavaScript Object Notation format (JSON) in row-major order
http://www.bom.gov.au/fwo/IDW60801/IDW60801.95402.json